sensor_id;sensor_type;location;lat;lon;timestamp;P1;durP1;ratioP1;P2;durP2;ratioP2
2888;SDS011;1453;42.708;23.282;2022-11-20T00:01:30;2.77;;;1.60;;
2888;SDS011;1453;42.708;23.282;2022-11-20T00:03:56;3.47;;;1.63;;
2888;SDS011;1453;42.708;23.282;2022-11-20T00:06:23;1.90;;;1.50;;
2888;SDS011;1453;42.708;23.282;2022-11-20T00:08:51;6.43;;;2.03;;
2888;SDS011;1453;42.708;23.282;2022-11-20T00:11:20;3.30;;;1.83;;
2888;SDS011;1453;42.708;23.282;2022-11-20T00:13:49;4.37;;;2.00;;
2888;SDS011;1453;42.708;23.282;2022-11-20T00:16:19;2.60;;;1.50;;
2888;SDS011;1453;42.708;23.282;2022-11-20T00:18:47;1.80;;;1.43;;
2888;SDS011;1453;42.708;23.282;2022-11-20T00:21:17;3.63;;;1.83;;
2888;SDS011;1453;42.708;23.282;2022-11-20T00:23:48;2.47;;;1.50;;
2888;SDS011;1453;42.708;23.282;2022-11-20T00:26:16;2.33;;;1.73;;
2888;SDS011;1453;42.708;23.282;2022-11-20T00:28:48;3.13;;;1.90;;
2888;SDS011;1453;42.708;23.282;2022-11-20T00:31:17;6.03;;;1.50;;
2888;SDS011;1453;42.708;23.282;2022-11-20T00:33:44;3.13;;;1.60;;
2888;SDS011;1453;42.708;23.282;2022-11-20T00:36:20;1.77;;;1.30;;
2888;SDS011;1453;42.708;23.282;2022-11-20T00:38:52;3.30;;;1.90;;
2888;SDS011;1453;42.708;23.282;2022-11-20T00:41:20;3.07;;;1.73;;
2888;SDS011;1453;42.708;23.282;2022-11-20T00:43:46;2.60;;;1.60;;
2888;SDS011;1453;42.708;23.282;2022-11-20T00:46:16;3.97;;;2.10;;
2888;SDS011;1453;42.708;23.282;2022-11-20T00:48:44;1.87;;;1.60;;
2888;SDS011;1453;42.708;23.282;2022-11-20T00:51:11;2.80;;;1.70;;
2888;SDS011;1453;42.708;23.282;2022-11-20T00:53:40;2.23;;;2.03;;
2888;SDS011;1453;42.708;23.282;2022-11-20T00:56:10;3.37;;;1.70;;
2888;SDS011;1453;42.708;23.282;2022-11-20T00:58:39;3.83;;;1.83;;
2888;SDS011;1453;42.708;23.282;2022-11-20T01:01:08;3.30;;;2.50;;
2888;SDS011;1453;42.708;23.282;2022-11-20T01:03:38;3.20;;;2.07;;
2888;SDS011;1453;42.708;23.282;2022-11-20T01:06:17;2.90;;;1.80;;
2888;SDS011;1453;42.708;23.282;2022-11-20T01:08:50;3.53;;;2.47;;
2888;SDS011;1453;42.708;23.282;2022-11-20T01:11:23;4.20;;;1.90;;
2888;SDS011;1453;42.708;23.282;2022-11-20T01:13:53;4.20;;;2.17;;
2888;SDS011;1453;42.708;23.282;2022-11-20T01:16:23;4.50;;;2.00;;
2888;SDS011;1453;42.708;23.282;2022-11-20T01:18:56;6.03;;;1.93;;
2888;SDS011;1453;42.708;23.282;2022-11-20T01:21:25;3.33;;;2.00;;
2888;SDS011;1453;42.708;23.282;2022-11-20T01:24:00;2.90;;;1.60;;
2888;SDS011;1453;42.708;23.282;2022-11-20T01:26:28;3.97;;;1.50;;
2888;SDS011;1453;42.708;23.282;2022-11-20T01:28:57;2.93;;;1.80;;
2888;SDS011;1453;42.708;23.282;2022-11-20T01:33:55;3.20;;;1.77;;
2888;SDS011;1453;42.708;23.282;2022-11-20T01:36:25;5.17;;;1.80;;
2888;SDS011;1453;42.708;23.282;2022-11-20T01:38:57;3.83;;;1.97;;
2888;SDS011;1453;42.708;23.282;2022-11-20T01:41:27;3.87;;;1.90;;
2888;SDS011;1453;42.708;23.282;2022-11-20T01:44:17;2.53;;;1.50;;
2888;SDS011;1453;42.708;23.282;2022-11-20T01:46:55;2.20;;;1.90;;
2888;SDS011;1453;42.708;23.282;2022-11-20T01:49:34;2.37;;;1.60;;
2888;SDS011;1453;42.708;23.282;2022-11-20T01:52:12;2.67;;;1.70;;
2888;SDS011;1453;42.708;23.282;2022-11-20T01:57:33;2.97;;;1.77;;
2888;SDS011;1453;42.708;23.282;2022-11-20T02:00:08;2.00;;;1.80;;
2888;SDS011;1453;42.708;23.282;2022-11-20T02:02:38;1.93;;;1.60;;
2888;SDS011;1453;42.708;23.282;2022-11-20T02:05:19;2.90;;;1.83;;
2888;SDS011;1453;42.708;23.282;2022-11-20T02:08:08;14.33;;;3.00;;
2888;SDS011;1453;42.708;23.282;2022-11-20T02:10:34;3.50;;;2.17;;
2888;SDS011;1453;42.708;23.282;2022-11-20T02:13:00;4.03;;;2.30;;
2888;SDS011;1453;42.708;23.282;2022-11-20T02:15:45;2.67;;;1.57;;
2888;SDS011;1453;42.708;23.282;2022-11-20T02:18:11;2.30;;;1.93;;
2888;SDS011;1453;42.708;23.282;2022-11-20T02:20:45;4.20;;;2.07;;
2888;SDS011;1453;42.708;23.282;2022-11-20T02:23:28;2.53;;;1.43;;
2888;SDS011;1453;42.708;23.282;2022-11-20T02:26:46;3.83;;;1.70;;
2888;SDS011;1453;42.708;23.282;2022-11-20T02:29:26;2.07;;;1.70;;
2888;SDS011;1453;42.708;23.282;2022-11-20T02:31:55;3.53;;;2.30;;
2888;SDS011;1453;42.708;23.282;2022-11-20T02:34:21;3.60;;;1.67;;
2888;SDS011;1453;42.708;23.282;2022-11-20T02:36:47;5.87;;;1.70;;
2888;SDS011;1453;42.708;23.282;2022-11-20T02:39:16;2.30;;;1.57;;
2888;SDS011;1453;42.708;23.282;2022-11-20T02:41:42;3.00;;;1.70;;
2888;SDS011;1453;42.708;23.282;2022-11-20T02:44:08;3.03;;;2.13;;
2888;SDS011;1453;42.708;23.282;2022-11-20T02:46:34;1.73;;;1.60;;
2888;SDS011;1453;42.708;23.282;2022-11-20T02:49:01;3.30;;;1.70;;
2888;SDS011;1453;42.708;23.282;2022-11-20T02:51:28;2.10;;;1.80;;
2888;SDS011;1453;42.708;23.282;2022-11-20T02:53:54;4.67;;;1.77;;
2888;SDS011;1453;42.708;23.282;2022-11-20T02:56:20;7.83;;;2.50;;
2888;SDS011;1453;42.708;23.282;2022-11-20T02:58:46;2.90;;;1.60;;
2888;SDS011;1453;42.708;23.282;2022-11-20T03:01:12;2.90;;;2.07;;
2888;SDS011;1453;42.708;23.282;2022-11-20T03:03:39;4.47;;;2.23;;
2888;SDS011;1453;42.708;23.282;2022-11-20T03:06:04;5.60;;;1.87;;
2888;SDS011;1453;42.708;23.282;2022-11-20T03:08:31;6.33;;;2.63;;
2888;SDS011;1453;42.708;23.282;2022-11-20T03:11:02;5.03;;;2.00;;
2888;SDS011;1453;42.708;23.282;2022-11-20T03:13:31;7.60;;;2.97;;
2888;SDS011;1453;42.708;23.282;2022-11-20T03:15:57;6.37;;;3.57;;
2888;SDS011;1453;42.708;23.282;2022-11-20T03:18:23;5.93;;;1.63;;
2888;SDS011;1453;42.708;23.282;2022-11-20T03:20:48;4.80;;;2.20;;
2888;SDS011;1453;42.708;23.282;2022-11-20T03:23:14;5.10;;;2.53;;
2888;SDS011;1453;42.708;23.282;2022-11-20T03:25:40;4.87;;;2.27;;
2888;SDS011;1453;42.708;23.282;2022-11-20T03:28:06;4.93;;;2.30;;
2888;SDS011;1453;42.708;23.282;2022-11-20T03:30:31;7.53;;;2.07;;
2888;SDS011;1453;42.708;23.282;2022-11-20T03:32:57;4.37;;;3.00;;
2888;SDS011;1453;42.708;23.282;2022-11-20T03:35:23;4.83;;;1.70;;
2888;SDS011;1453;42.708;23.282;2022-11-20T03:37:49;3.03;;;2.07;;
2888;SDS011;1453;42.708;23.282;2022-11-20T03:40:14;6.00;;;2.20;;
2888;SDS011;1453;42.708;23.282;2022-11-20T03:42:40;4.43;;;2.00;;
2888;SDS011;1453;42.708;23.282;2022-11-20T03:45:13;9.30;;;2.70;;
2888;SDS011;1453;42.708;23.282;2022-11-20T03:47:43;5.83;;;2.20;;
2888;SDS011;1453;42.708;23.282;2022-11-20T03:50:10;5.10;;;2.40;;
2888;SDS011;1453;42.708;23.282;2022-11-20T03:52:39;4.97;;;2.13;;
2888;SDS011;1453;42.708;23.282;2022-11-20T03:55:05;2.93;;;2.00;;
2888;SDS011;1453;42.708;23.282;2022-11-20T03:57:32;2.63;;;1.93;;
2888;SDS011;1453;42.708;23.282;2022-11-20T03:59:58;4.50;;;1.90;;
2888;SDS011;1453;42.708;23.282;2022-11-20T04:02:24;3.33;;;2.10;;
2888;SDS011;1453;42.708;23.282;2022-11-20T04:04:50;2.23;;;1.60;;
2888;SDS011;1453;42.708;23.282;2022-11-20T04:07:15;3.23;;;2.27;;
2888;SDS011;1453;42.708;23.282;2022-11-20T04:09:41;4.13;;;1.97;;
2888;SDS011;1453;42.708;23.282;2022-11-20T04:12:07;3.67;;;2.13;;
2888;SDS011;1453;42.708;23.282;2022-11-20T04:14:33;5.70;;;2.10;;
2888;SDS011;1453;42.708;23.282;2022-11-20T04:16:58;3.27;;;2.00;;
2888;SDS011;1453;42.708;23.282;2022-11-20T04:19:24;3.27;;;1.87;;
2888;SDS011;1453;42.708;23.282;2022-11-20T04:21:50;4.10;;;2.33;;
2888;SDS011;1453;42.708;23.282;2022-11-20T04:24:16;4.33;;;1.87;;
2888;SDS011;1453;42.708;23.282;2022-11-20T04:26:41;4.03;;;2.10;;
2888;SDS011;1453;42.708;23.282;2022-11-20T04:29:09;5.60;;;2.30;;
2888;SDS011;1453;42.708;23.282;2022-11-20T04:31:36;3.50;;;1.83;;
2888;SDS011;1453;42.708;23.282;2022-11-20T04:34:04;3.90;;;1.80;;
2888;SDS011;1453;42.708;23.282;2022-11-20T04:36:32;3.70;;;1.47;;
2888;SDS011;1453;42.708;23.282;2022-11-20T04:39:02;2.63;;;1.80;;
2888;SDS011;1453;42.708;23.282;2022-11-20T04:41:32;3.27;;;2.27;;
2888;SDS011;1453;42.708;23.282;2022-11-20T04:44:03;1.70;;;1.43;;
2888;SDS011;1453;42.708;23.282;2022-11-20T04:46:34;3.60;;;1.80;;
2888;SDS011;1453;42.708;23.282;2022-11-20T04:49:06;3.63;;;1.70;;
2888;SDS011;1453;42.708;23.282;2022-11-20T04:51:33;2.40;;;1.60;;
2888;SDS011;1453;42.708;23.282;2022-11-20T04:53:59;3.30;;;1.83;;
2888;SDS011;1453;42.708;23.282;2022-11-20T04:56:26;4.87;;;1.70;;
2888;SDS011;1453;42.708;23.282;2022-11-20T04:58:52;5.10;;;2.13;;
2888;SDS011;1453;42.708;23.282;2022-11-20T05:01:22;2.20;;;1.30;;
2888;SDS011;1453;42.708;23.282;2022-11-20T05:03:49;2.80;;;1.57;;
2888;SDS011;1453;42.708;23.282;2022-11-20T05:06:17;1.90;;;1.47;;
2888;SDS011;1453;42.708;23.282;2022-11-20T05:08:46;2.30;;;1.70;;
2888;SDS011;1453;42.708;23.282;2022-11-20T05:11:15;4.90;;;1.97;;
2888;SDS011;1453;42.708;23.282;2022-11-20T05:13:44;2.97;;;1.70;;
2888;SDS011;1453;42.708;23.282;2022-11-20T05:16:16;3.77;;;1.53;;
2888;SDS011;1453;42.708;23.282;2022-11-20T05:18:45;4.17;;;1.67;;
2888;SDS011;1453;42.708;23.282;2022-11-20T05:21:11;4.50;;;1.70;;
2888;SDS011;1453;42.708;23.282;2022-11-20T05:23:38;2.57;;;1.50;;
2888;SDS011;1453;42.708;23.282;2022-11-20T05:26:05;2.50;;;1.83;;
2888;SDS011;1453;42.708;23.282;2022-11-20T05:28:36;3.50;;;1.90;;
2888;SDS011;1453;42.708;23.282;2022-11-20T05:31:05;5.13;;;2.00;;
2888;SDS011;1453;42.708;23.282;2022-11-20T05:33:34;4.27;;;1.60;;
2888;SDS011;1453;42.708;23.282;2022-11-20T05:36:01;5.20;;;1.90;;
2888;SDS011;1453;42.708;23.282;2022-11-20T05:38:30;3.40;;;2.00;;
2888;SDS011;1453;42.708;23.282;2022-11-20T05:41:03;3.80;;;1.93;;
2888;SDS011;1453;42.708;23.282;2022-11-20T05:43:42;4.67;;;1.87;;
2888;SDS011;1453;42.708;23.282;2022-11-20T05:46:11;3.03;;;1.87;;
2888;SDS011;1453;42.708;23.282;2022-11-20T05:48:40;4.23;;;2.00;;
2888;SDS011;1453;42.708;23.282;2022-11-20T05:51:09;3.10;;;2.20;;
2888;SDS011;1453;42.708;23.282;2022-11-20T05:53:38;3.00;;;2.00;;
2888;SDS011;1453;42.708;23.282;2022-11-20T05:56:08;4.20;;;2.30;;
2888;SDS011;1453;42.708;23.282;2022-11-20T05:58:37;4.43;;;2.10;;
2888;SDS011;1453;42.708;23.282;2022-11-20T06:03:43;3.13;;;2.00;;
2888;SDS011;1453;42.708;23.282;2022-11-20T06:06:12;5.43;;;2.10;;
2888;SDS011;1453;42.708;23.282;2022-11-20T06:08:42;4.17;;;2.00;;
2888;SDS011;1453;42.708;23.282;2022-11-20T06:11:10;3.50;;;2.30;;
2888;SDS011;1453;42.708;23.282;2022-11-20T06:13:37;8.90;;;2.87;;
2888;SDS011;1453;42.708;23.282;2022-11-20T06:16:04;3.63;;;2.57;;
2888;SDS011;1453;42.708;23.282;2022-11-20T06:18:31;3.23;;;2.20;;
2888;SDS011;1453;42.708;23.282;2022-11-20T06:23:27;6.20;;;2.77;;
2888;SDS011;1453;42.708;23.282;2022-11-20T06:25:55;5.50;;;2.40;;
2888;SDS011;1453;42.708;23.282;2022-11-20T06:28:20;4.47;;;2.40;;
2888;SDS011;1453;42.708;23.282;2022-11-20T06:30:47;4.70;;;2.10;;
2888;SDS011;1453;42.708;23.282;2022-11-20T06:33:12;3.70;;;2.30;;
2888;SDS011;1453;42.708;23.282;2022-11-20T06:35:38;3.20;;;2.30;;
2888;SDS011;1453;42.708;23.282;2022-11-20T06:38:04;3.57;;;2.23;;
2888;SDS011;1453;42.708;23.282;2022-11-20T06:40:30;4.20;;;2.40;;
2888;SDS011;1453;42.708;23.282;2022-11-20T06:42:55;4.20;;;2.57;;
2888;SDS011;1453;42.708;23.282;2022-11-20T06:45:21;2.40;;;1.80;;
2888;SDS011;1453;42.708;23.282;2022-11-20T06:47:47;5.23;;;2.00;;
2888;SDS011;1453;42.708;23.282;2022-11-20T06:50:13;5.40;;;2.20;;
2888;SDS011;1453;42.708;23.282;2022-11-20T06:52:39;3.07;;;2.10;;
2888;SDS011;1453;42.708;23.282;2022-11-20T06:55:04;3.03;;;1.73;;
2888;SDS011;1453;42.708;23.282;2022-11-20T06:57:31;8.37;;;2.60;;
2888;SDS011;1453;42.708;23.282;2022-11-20T06:59:57;5.20;;;2.53;;
2888;SDS011;1453;42.708;23.282;2022-11-20T07:02:22;3.80;;;2.47;;
2888;SDS011;1453;42.708;23.282;2022-11-20T07:04:48;4.77;;;2.60;;
2888;SDS011;1453;42.708;23.282;2022-11-20T07:07:14;7.50;;;3.00;;
2888;SDS011;1453;42.708;23.282;2022-11-20T07:09:39;6.23;;;2.30;;
2888;SDS011;1453;42.708;23.282;2022-11-20T07:12:07;4.40;;;1.93;;
2888;SDS011;1453;42.708;23.282;2022-11-20T07:14:33;8.20;;;2.80;;
2888;SDS011;1453;42.708;23.282;2022-11-20T07:16:59;6.57;;;3.07;;
2888;SDS011;1453;42.708;23.282;2022-11-20T07:19:25;5.03;;;2.43;;
2888;SDS011;1453;42.708;23.282;2022-11-20T07:21:51;7.40;;;2.67;;
2888;SDS011;1453;42.708;23.282;2022-11-20T07:24:16;4.30;;;2.40;;
2888;SDS011;1453;42.708;23.282;2022-11-20T07:26:42;3.07;;;2.30;;
2888;SDS011;1453;42.708;23.282;2022-11-20T07:29:13;4.70;;;2.73;;
2888;SDS011;1453;42.708;23.282;2022-11-20T07:31:38;6.53;;;2.73;;
2888;SDS011;1453;42.708;23.282;2022-11-20T07:34:04;6.17;;;2.60;;
2888;SDS011;1453;42.708;23.282;2022-11-20T07:36:30;7.47;;;3.37;;
2888;SDS011;1453;42.708;23.282;2022-11-20T07:38:56;7.70;;;3.20;;
2888;SDS011;1453;42.708;23.282;2022-11-20T07:41:21;6.13;;;2.90;;
2888;SDS011;1453;42.708;23.282;2022-11-20T07:43:47;3.97;;;2.60;;
2888;SDS011;1453;42.708;23.282;2022-11-20T07:46:13;6.40;;;2.87;;
2888;SDS011;1453;42.708;23.282;2022-11-20T07:48:39;10.10;;;5.37;;
2888;SDS011;1453;42.708;23.282;2022-11-20T07:51:05;15.83;;;8.30;;
2888;SDS011;1453;42.708;23.282;2022-11-20T07:53:31;4.30;;;2.93;;
2888;SDS011;1453;42.708;23.282;2022-11-20T07:56:01;6.33;;;2.43;;
2888;SDS011;1453;42.708;23.282;2022-11-20T07:58:31;20.87;;;11.40;;
2888;SDS011;1453;42.708;23.282;2022-11-20T08:01:02;37.87;;;21.30;;
2888;SDS011;1453;42.708;23.282;2022-11-20T08:03:30;17.70;;;9.30;;
2888;SDS011;1453;42.708;23.282;2022-11-20T08:05:58;5.37;;;2.90;;
2888;SDS011;1453;42.708;23.282;2022-11-20T08:08:25;6.27;;;3.20;;
2888;SDS011;1453;42.708;23.282;2022-11-20T08:10:52;8.10;;;4.70;;
2888;SDS011;1453;42.708;23.282;2022-11-20T08:13:38;7.03;;;3.47;;
2888;SDS011;1453;42.708;23.282;2022-11-20T08:16:22;12.30;;;5.83;;
2888;SDS011;1453;42.708;23.282;2022-11-20T08:18:48;7.33;;;3.80;;
2888;SDS011;1453;42.708;23.282;2022-11-20T08:21:14;12.43;;;4.10;;
2888;SDS011;1453;42.708;23.282;2022-11-20T08:23:40;11.60;;;5.93;;
2888;SDS011;1453;42.708;23.282;2022-11-20T08:26:06;9.23;;;3.97;;
2888;SDS011;1453;42.708;23.282;2022-11-20T08:28:31;5.23;;;3.57;;
2888;SDS011;1453;42.708;23.282;2022-11-20T08:30:58;9.70;;;4.10;;
2888;SDS011;1453;42.708;23.282;2022-11-20T08:33:25;5.30;;;2.93;;
2888;SDS011;1453;42.708;23.282;2022-11-20T08:35:51;9.30;;;2.90;;
2888;SDS011;1453;42.708;23.282;2022-11-20T08:38:17;7.63;;;4.70;;
2888;SDS011;1453;42.708;23.282;2022-11-20T08:40:43;10.87;;;6.00;;
2888;SDS011;1453;42.708;23.282;2022-11-20T08:43:29;9.13;;;3.33;;
2888;SDS011;1453;42.708;23.282;2022-11-20T08:45:56;8.67;;;2.50;;
2888;SDS011;1453;42.708;23.282;2022-11-20T08:48:22;7.67;;;2.83;;
2888;SDS011;1453;42.708;23.282;2022-11-20T08:50:48;4.00;;;2.90;;
2888;SDS011;1453;42.708;23.282;2022-11-20T08:53:14;6.73;;;3.30;;
2888;SDS011;1453;42.708;23.282;2022-11-20T08:55:39;8.03;;;4.10;;
2888;SDS011;1453;42.708;23.282;2022-11-20T08:58:06;9.37;;;4.80;;
2888;SDS011;1453;42.708;23.282;2022-11-20T09:00:32;7.67;;;3.90;;
2888;SDS011;1453;42.708;23.282;2022-11-20T09:02:59;7.93;;;6.10;;
2888;SDS011;1453;42.708;23.282;2022-11-20T09:05:26;8.73;;;5.40;;
2888;SDS011;1453;42.708;23.282;2022-11-20T09:07:52;7.60;;;4.57;;
2888;SDS011;1453;42.708;23.282;2022-11-20T09:10:22;7.67;;;4.90;;
2888;SDS011;1453;42.708;23.282;2022-11-20T09:12:49;9.53;;;3.80;;
2888;SDS011;1453;42.708;23.282;2022-11-20T09:15:16;7.00;;;3.77;;
2888;SDS011;1453;42.708;23.282;2022-11-20T09:17:49;11.63;;;4.10;;
2888;SDS011;1453;42.708;23.282;2022-11-20T09:20:20;12.67;;;4.23;;
2888;SDS011;1453;42.708;23.282;2022-11-20T09:22:47;8.60;;;4.37;;
2888;SDS011;1453;42.708;23.282;2022-11-20T09:25:13;7.80;;;4.10;;
2888;SDS011;1453;42.708;23.282;2022-11-20T09:27:39;7.00;;;4.63;;
2888;SDS011;1453;42.708;23.282;2022-11-20T09:30:06;8.00;;;5.17;;
2888;SDS011;1453;42.708;23.282;2022-11-20T09:32:33;12.73;;;4.50;;
2888;SDS011;1453;42.708;23.282;2022-11-20T09:34:58;12.47;;;5.53;;
2888;SDS011;1453;42.708;23.282;2022-11-20T09:37:24;10.50;;;3.97;;
2888;SDS011;1453;42.708;23.282;2022-11-20T09:39:50;5.50;;;3.10;;
2888;SDS011;1453;42.708;23.282;2022-11-20T09:55:46;4.53;;;3.07;;
2888;SDS011;1453;42.708;23.282;2022-11-20T09:58:33;7.47;;;2.77;;
2888;SDS011;1453;42.708;23.282;2022-11-20T10:01:11;7.93;;;3.10;;
2888;SDS011;1453;42.708;23.282;2022-11-20T10:03:53;5.33;;;2.70;;
2888;SDS011;1453;42.708;23.282;2022-11-20T10:07:02;5.77;;;2.90;;
2888;SDS011;1453;42.708;23.282;2022-11-20T10:09:34;6.23;;;4.13;;
2888;SDS011;1453;42.708;23.282;2022-11-20T10:18:35;9.93;;;4.23;;
2888;SDS011;1453;42.708;23.282;2022-11-20T10:24:34;7.83;;;3.70;;
2888;SDS011;1453;42.708;23.282;2022-11-20T10:32:29;8.30;;;3.77;;
2888;SDS011;1453;42.708;23.282;2022-11-20T10:37:48;8.40;;;3.93;;
2888;SDS011;1453;42.708;23.282;2022-11-20T10:40:22;7.23;;;3.80;;
2888;SDS011;1453;42.708;23.282;2022-11-20T10:43:02;13.67;;;4.00;;
2888;SDS011;1453;42.708;23.282;2022-11-20T10:48:34;7.80;;;3.73;;
2888;SDS011;1453;42.708;23.282;2022-11-20T10:54:26;9.70;;;4.67;;
2888;SDS011;1453;42.708;23.282;2022-11-20T11:00:10;7.93;;;3.50;;
2888;SDS011;1453;42.708;23.282;2022-11-20T11:02:53;6.90;;;3.10;;
2888;SDS011;1453;42.708;23.282;2022-11-20T11:08:42;9.10;;;4.17;;
2888;SDS011;1453;42.708;23.282;2022-11-20T11:11:20;9.13;;;2.87;;
2888;SDS011;1453;42.708;23.282;2022-11-20T11:13:50;3.97;;;2.20;;
2888;SDS011;1453;42.708;23.282;2022-11-20T11:16:21;5.10;;;2.70;;
2888;SDS011;1453;42.708;23.282;2022-11-20T11:18:50;3.27;;;1.80;;
2888;SDS011;1453;42.708;23.282;2022-11-20T11:21:21;3.07;;;1.63;;
2888;SDS011;1453;42.708;23.282;2022-11-20T11:24:00;9.20;;;2.00;;
2888;SDS011;1453;42.708;23.282;2022-11-20T11:26:29;4.13;;;2.30;;
2888;SDS011;1453;42.708;23.282;2022-11-20T11:29:02;3.30;;;2.10;;
2888;SDS011;1453;42.708;23.282;2022-11-20T11:31:30;3.90;;;1.90;;
2888;SDS011;1453;42.708;23.282;2022-11-20T11:34:05;3.37;;;1.93;;
2888;SDS011;1453;42.708;23.282;2022-11-20T11:36:47;4.00;;;1.90;;
2888;SDS011;1453;42.708;23.282;2022-11-20T11:39:21;2.53;;;1.37;;
2888;SDS011;1453;42.708;23.282;2022-11-20T11:41:48;2.90;;;1.40;;
2888;SDS011;1453;42.708;23.282;2022-11-20T11:44:21;9.90;;;4.80;;
2888;SDS011;1453;42.708;23.282;2022-11-20T11:47:22;5.63;;;4.10;;
2888;SDS011;1453;42.708;23.282;2022-11-20T11:50:01;4.03;;;2.60;;
2888;SDS011;1453;42.708;23.282;2022-11-20T11:52:34;7.10;;;3.43;;
2888;SDS011;1453;42.708;23.282;2022-11-20T11:55:14;11.30;;;4.07;;
2888;SDS011;1453;42.708;23.282;2022-11-20T11:57:51;7.37;;;3.60;;
2888;SDS011;1453;42.708;23.282;2022-11-20T12:00:25;4.47;;;3.30;;
2888;SDS011;1453;42.708;23.282;2022-11-20T12:06:04;3.20;;;2.10;;
2888;SDS011;1453;42.708;23.282;2022-11-20T12:14:15;8.23;;;3.70;;
2888;SDS011;1453;42.708;23.282;2022-11-20T12:16:51;6.70;;;2.73;;
2888;SDS011;1453;42.708;23.282;2022-11-20T12:19:20;6.60;;;3.60;;
2888;SDS011;1453;42.708;23.282;2022-11-20T12:24:54;3.90;;;2.40;;
2888;SDS011;1453;42.708;23.282;2022-11-20T12:27:51;7.50;;;2.97;;
2888;SDS011;1453;42.708;23.282;2022-11-20T12:30:35;5.43;;;2.80;;
2888;SDS011;1453;42.708;23.282;2022-11-20T12:36:44;8.53;;;3.27;;
2888;SDS011;1453;42.708;23.282;2022-11-20T12:39:55;3.43;;;2.03;;
2888;SDS011;1453;42.708;23.282;2022-11-20T12:45:28;2.80;;;1.63;;
2888;SDS011;1453;42.708;23.282;2022-11-20T12:53:46;14.87;;;5.07;;
2888;SDS011;1453;42.708;23.282;2022-11-20T13:08:41;11.40;;;6.13;;
2888;SDS011;1453;42.708;23.282;2022-11-20T13:11:19;10.97;;;4.93;;
2888;SDS011;1453;42.708;23.282;2022-11-20T13:17:13;6.67;;;4.20;;
2888;SDS011;1453;42.708;23.282;2022-11-20T13:19:54;10.47;;;4.90;;
2888;SDS011;1453;42.708;23.282;2022-11-20T13:22:44;9.03;;;4.90;;
2888;SDS011;1453;42.708;23.282;2022-11-20T13:27:52;4.70;;;3.00;;
2888;SDS011;1453;42.708;23.282;2022-11-20T13:30:20;10.20;;;3.60;;
2888;SDS011;1453;42.708;23.282;2022-11-20T13:32:57;4.90;;;2.50;;
2888;SDS011;1453;42.708;23.282;2022-11-20T13:35:33;4.40;;;2.70;;
2888;SDS011;1453;42.708;23.282;2022-11-20T13:38:13;7.67;;;2.53;;
2888;SDS011;1453;42.708;23.282;2022-11-20T13:40:53;7.90;;;3.10;;
2888;SDS011;1453;42.708;23.282;2022-11-20T13:43:46;7.57;;;3.50;;
2888;SDS011;1453;42.708;23.282;2022-11-20T13:46:14;7.10;;;3.40;;
2888;SDS011;1453;42.708;23.282;2022-11-20T13:48:41;6.03;;;3.30;;
2888;SDS011;1453;42.708;23.282;2022-11-20T14:00:21;8.10;;;3.27;;
2888;SDS011;1453;42.708;23.282;2022-11-20T14:05:49;9.20;;;3.10;;
2888;SDS011;1453;42.708;23.282;2022-11-20T14:08:33;6.73;;;3.07;;
2888;SDS011;1453;42.708;23.282;2022-11-20T14:11:16;9.27;;;4.17;;
2888;SDS011;1453;42.708;23.282;2022-11-20T14:13:57;6.50;;;4.07;;
2888;SDS011;1453;42.708;23.282;2022-11-20T14:16:42;8.33;;;4.43;;
2888;SDS011;1453;42.708;23.282;2022-11-20T14:24:48;7.93;;;5.30;;
2888;SDS011;1453;42.708;23.282;2022-11-20T14:27:43;7.67;;;4.10;;
2888;SDS011;1453;42.708;23.282;2022-11-20T14:30:42;6.23;;;3.60;;
2888;SDS011;1453;42.708;23.282;2022-11-20T14:33:13;6.00;;;3.33;;
2888;SDS011;1453;42.708;23.282;2022-11-20T14:35:43;5.83;;;3.80;;
2888;SDS011;1453;42.708;23.282;2022-11-20T14:38:31;8.67;;;4.50;;
2888;SDS011;1453;42.708;23.282;2022-11-20T14:41:09;6.10;;;4.03;;
2888;SDS011;1453;42.708;23.282;2022-11-20T14:43:56;5.13;;;3.93;;
2888;SDS011;1453;42.708;23.282;2022-11-20T14:46:24;5.90;;;3.20;;
2888;SDS011;1453;42.708;23.282;2022-11-20T14:49:00;8.57;;;4.37;;
2888;SDS011;1453;42.708;23.282;2022-11-20T14:54:16;6.03;;;4.03;;
2888;SDS011;1453;42.708;23.282;2022-11-20T14:56:53;5.43;;;3.10;;
2888;SDS011;1453;42.708;23.282;2022-11-20T14:59:28;7.53;;;4.00;;
2888;SDS011;1453;42.708;23.282;2022-11-20T15:01:58;6.27;;;4.67;;
2888;SDS011;1453;42.708;23.282;2022-11-20T15:04:24;6.07;;;3.80;;
2888;SDS011;1453;42.708;23.282;2022-11-20T15:06:51;8.47;;;3.80;;
2888;SDS011;1453;42.708;23.282;2022-11-20T15:09:21;6.53;;;3.60;;
2888;SDS011;1453;42.708;23.282;2022-11-20T15:11:52;4.03;;;2.50;;
2888;SDS011;1453;42.708;23.282;2022-11-20T15:14:24;5.73;;;3.53;;
2888;SDS011;1453;42.708;23.282;2022-11-20T15:16:52;3.13;;;2.80;;
2888;SDS011;1453;42.708;23.282;2022-11-20T15:19:23;6.67;;;3.10;;
2888;SDS011;1453;42.708;23.282;2022-11-20T15:21:52;4.73;;;2.53;;
2888;SDS011;1453;42.708;23.282;2022-11-20T15:24:18;4.53;;;2.50;;
2888;SDS011;1453;42.708;23.282;2022-11-20T15:26:45;3.10;;;2.27;;
2888;SDS011;1453;42.708;23.282;2022-11-20T15:29:12;6.43;;;3.07;;
2888;SDS011;1453;42.708;23.282;2022-11-20T15:31:43;7.77;;;5.40;;
2888;SDS011;1453;42.708;23.282;2022-11-20T15:34:16;5.77;;;3.40;;
2888;SDS011;1453;42.708;23.282;2022-11-20T15:36:42;4.80;;;3.40;;
2888;SDS011;1453;42.708;23.282;2022-11-20T15:39:08;7.00;;;3.70;;
2888;SDS011;1453;42.708;23.282;2022-11-20T15:41:36;4.53;;;2.87;;
2888;SDS011;1453;42.708;23.282;2022-11-20T15:44:04;3.63;;;2.20;;
2888;SDS011;1453;42.708;23.282;2022-11-20T15:46:31;6.03;;;2.73;;
2888;SDS011;1453;42.708;23.282;2022-11-20T15:49:03;5.50;;;2.80;;
2888;SDS011;1453;42.708;23.282;2022-11-20T15:51:36;5.00;;;2.47;;
2888;SDS011;1453;42.708;23.282;2022-11-20T15:54:11;6.10;;;3.30;;
2888;SDS011;1453;42.708;23.282;2022-11-20T15:56:39;8.67;;;5.13;;
2888;SDS011;1453;42.708;23.282;2022-11-20T15:59:05;9.40;;;5.47;;
2888;SDS011;1453;42.708;23.282;2022-11-20T16:01:31;4.60;;;3.30;;
2888;SDS011;1453;42.708;23.282;2022-11-20T16:03:57;17.07;;;7.63;;
2888;SDS011;1453;42.708;23.282;2022-11-20T16:06:24;7.13;;;3.97;;
2888;SDS011;1453;42.708;23.282;2022-11-20T16:08:50;8.77;;;6.10;;
2888;SDS011;1453;42.708;23.282;2022-11-20T16:11:16;14.63;;;5.73;;
2888;SDS011;1453;42.708;23.282;2022-11-20T16:13:42;8.83;;;4.57;;
2888;SDS011;1453;42.708;23.282;2022-11-20T16:19:02;19.70;;;10.60;;
2888;SDS011;1453;42.708;23.282;2022-11-20T16:21:29;15.30;;;8.10;;
2888;SDS011;1453;42.708;23.282;2022-11-20T16:23:59;13.40;;;6.93;;
2888;SDS011;1453;42.708;23.282;2022-11-20T16:26:28;10.80;;;4.97;;
2888;SDS011;1453;42.708;23.282;2022-11-20T16:28:55;5.50;;;4.13;;
2888;SDS011;1453;42.708;23.282;2022-11-20T16:31:20;7.77;;;5.27;;
2888;SDS011;1453;42.708;23.282;2022-11-20T16:33:50;6.47;;;4.77;;
2888;SDS011;1453;42.708;23.282;2022-11-20T16:36:18;8.03;;;5.80;;
2888;SDS011;1453;42.708;23.282;2022-11-20T16:38:45;8.13;;;5.90;;
2888;SDS011;1453;42.708;23.282;2022-11-20T16:41:11;8.73;;;6.07;;
2888;SDS011;1453;42.708;23.282;2022-11-20T16:43:44;9.37;;;6.53;;
2888;SDS011;1453;42.708;23.282;2022-11-20T16:46:12;7.70;;;5.97;;
2888;SDS011;1453;42.708;23.282;2022-11-20T16:48:43;10.23;;;6.33;;
2888;SDS011;1453;42.708;23.282;2022-11-20T16:51:10;12.13;;;8.67;;
2888;SDS011;1453;42.708;23.282;2022-11-20T16:53:37;6.37;;;5.00;;
2888;SDS011;1453;42.708;23.282;2022-11-20T16:56:08;9.97;;;5.97;;
2888;SDS011;1453;42.708;23.282;2022-11-20T16:58:45;11.33;;;6.30;;
2888;SDS011;1453;42.708;23.282;2022-11-20T17:01:14;8.77;;;6.27;;
2888;SDS011;1453;42.708;23.282;2022-11-20T17:03:43;8.77;;;5.27;;
2888;SDS011;1453;42.708;23.282;2022-11-20T17:06:11;8.63;;;4.50;;
2888;SDS011;1453;42.708;23.282;2022-11-20T17:08:49;6.47;;;4.80;;
2888;SDS011;1453;42.708;23.282;2022-11-20T17:11:15;7.30;;;4.80;;
2888;SDS011;1453;42.708;23.282;2022-11-20T17:13:43;13.30;;;6.00;;
2888;SDS011;1453;42.708;23.282;2022-11-20T17:16:13;6.73;;;4.73;;
2888;SDS011;1453;42.708;23.282;2022-11-20T17:18:48;5.57;;;4.47;;
2888;SDS011;1453;42.708;23.282;2022-11-20T17:21:16;5.60;;;4.20;;